Time;durP1;ratioP1;P1;durP2;ratioP2;P2;SDS_P1;SDS_P2;PMS_P1;PMS_P2;Temp;Humidity;BMP_temperature;BMP_pressure;BME280_temperature;BME280_humidity;BME280_pressure;Samples;Min_cycle;Max_cycle;Signal;HPM_P1;HPM_P2
2022/09/23 00:01:13;;;;;;;;;;;12.90;99.90;;;;;;5031234;28;20025;-69
2022/09/23 00:03:45;;;;;;;;;;;13.00;99.90;;;;;;5021993;28;20199;-68
2022/09/23 00:06:12;;;;;;;;;;;13.00;99.90;;;;;;5017935;28;20383;-69
2022/09/23 00:08:38;;;;;;;;;;;13.00;99.90;;;;;;5019825;28;20279;-69
2022/09/23 00:11:08;;;;;;;;;;;13.00;99.90;;;;;;5018014;28;19917;-69
2022/09/23 00:13:34;;;;;;;;;;;12.90;99.90;;;;;;5018680;28;19928;-69
2022/09/23 00:16:04;;;;;;;;;;;12.90;99.90;;;;;;5018057;28;19917;-69
2022/09/23 00:18:29;;;;;;;;;;;12.90;99.90;;;;;;5016201;28;19921;-69
2022/09/23 00:20:55;;;;;;;;;;;12.80;99.90;;;;;;5017957;28;19917;-69
2022/09/23 00:23:20;;;;;;;;;;;12.80;99.90;;;;;;5016531;28;19971;-69
2022/09/23 00:25:54;;;;;;;;;;;12.80;99.90;;;;;;5015315;28;20303;-69
2022/09/23 00:28:19;;;;;;;;;;;12.80;99.90;;;;;;4999776;28;20336;-68
2022/09/23 00:30:45;;;;;;;;;;;12.80;99.90;;;;;;5002730;28;20402;-69
2022/09/23 00:33:10;;;;;;;;;;;12.80;99.90;;;;;;5022284;28;19941;-67
2022/09/23 00:35:37;;;;;;;;;;;12.80;99.90;;;;;;5017238;28;20292;-67
2022/09/23 00:38:03;;;;;;;;;;;12.80;99.90;;;;;;5015271;28;19917;-68
2022/09/23 00:40:28;;;;;;;;;;;12.80;99.90;;;;;;5010751;28;19921;-68
2022/09/23 00:42:54;;;;;;;;;;;12.80;99.90;;;;;;5020760;28;19975;-70
2022/09/23 00:45:19;;;;;;;;;;;12.80;99.90;;;;;;5021569;28;19925;-67
2022/09/23 00:47:51;;;;;;;;;;;12.80;99.90;;;;;;5021522;28;20483;-69
2022/09/23 00:50:23;;;;;;;;;;;12.90;99.90;;;;;;5021407;28;19921;-69
2022/09/23 00:52:49;;;;;;;;;;;12.90;99.90;;;;;;5021833;28;19951;-69
2022/09/23 00:55:17;;;;;;;;;;;12.90;99.90;;;;;;5020361;28;19971;-69
2022/09/23 00:57:44;;;;;;;;;;;12.90;99.90;;;;;;5021703;28;20265;-70
2022/09/23 01:00:10;;;;;;;;;;;12.90;99.90;;;;;;5022206;28;20023;-69
2022/09/23 01:02:36;;;;;;;;;;;12.90;99.90;;;;;;5018191;28;20008;-69
2022/09/23 01:05:05;;;;;;;;;;;12.80;99.90;;;;;;5042029;28;19931;-69
2022/09/23 01:07:31;;;;;;;;;;;12.80;99.90;;;;;;5039506;28;19916;-69
2022/09/23 01:09:58;;;;;;;;;;;12.80;99.90;;;;;;5041466;28;20229;-69
2022/09/23 01:12:27;;;;;;;;;;;12.80;99.90;;;;;;5040524;28;19999;-69
2022/09/23 01:15:09;;;;;;;;;;;12.80;99.90;;;;;;5040503;28;20368;-69
2022/09/23 01:17:39;;;;;;;;;;;12.80;99.90;;;;;;5040012;28;20015;-70
2022/09/23 01:20:23;;;;;;;;;;;12.80;99.90;;;;;;5031874;28;19939;-69
2022/09/23 01:23:07;;;;;;;;;;;12.80;99.90;;;;;;5033474;28;19924;-69
2022/09/23 01:25:42;;;;;;;;;;;12.80;99.90;;;;;;5040069;28;19945;-70
2022/09/23 01:28:13;;;;;;;;;;;12.80;99.90;;;;;;5040999;28;19916;-69
2022/09/23 01:30:50;;;;;;;;;;;12.70;99.90;;;;;;5041138;28;20359;-70
2022/09/23 01:33:21;;;;;;;;;;;12.70;99.90;;;;;;5041189;28;20154;-70
2022/09/23 01:35:52;;;;;;;;;;;12.70;99.90;;;;;;5019973;28;19917;-69
2022/09/23 01:38:36;;;;;;;;;;;12.70;99.90;;;;;;5039823;28;20295;-69
2022/09/23 01:41:04;;;;;;;;;;;12.70;99.90;;;;;;5040235;28;19928;-70
2022/09/23 01:43:49;;;;;;;;;;;12.70;99.90;;;;;;5040276;28;19916;-69
2022/09/23 01:46:26;;;;;;;;;;;12.70;99.90;;;;;;5029881;28;19924;-69
2022/09/23 01:48:55;;;;;;;;;;;12.70;99.90;;;;;;5037051;28;20375;-70
2022/09/23 01:51:25;;;;;;;;;;;12.70;99.90;;;;;;5039766;28;19917;-70
2022/09/23 01:53:51;;;;;;;;;;;12.70;99.90;;;;;;5037999;28;19925;-69
2022/09/23 01:56:22;;;;;;;;;;;12.70;99.90;;;;;;5043498;28;19958;-70
2022/09/23 01:58:54;;;;;;;;;;;12.80;99.90;;;;;;5042393;28;19963;-69
2022/09/23 02:01:45;;;;;;;;;;;12.90;99.90;;;;;;5036243;28;20011;-69
2022/09/23 02:04:16;;;;;;;;;;;12.90;99.90;;;;;;5006282;28;19930;-70
2022/09/23 02:06:54;;;;;;;;;;;12.90;99.90;;;;;;5002586;28;19926;-70
2022/09/23 02:09:24;;;;;;;;;;;13.00;99.90;;;;;;5019510;28;20012;-70
2022/09/23 02:11:51;;;;;;;;;;;13.00;99.90;;;;;;5007353;28;20031;-70
2022/09/23 02:14:16;;;;;;;;;;;12.90;99.90;;;;;;5021715;28;20368;-70
2022/09/23 02:16:43;;;;;;;;;;;13.00;99.90;;;;;;5022023;28;19917;-69
2022/09/23 02:19:14;;;;;;;;;;;13.00;99.90;;;;;;5020985;28;19967;-69
2022/09/23 02:21:41;;;;;;;;;;;13.00;99.90;;;;;;5020966;28;19921;-70
2022/09/23 02:24:18;;;;;;;;;;;13.00;99.90;;;;;;5022299;28;20066;-70
2022/09/23 02:26:49;;;;;;;;;;;13.00;99.90;;;;;;5018795;28;19929;-70
2022/09/23 02:29:19;;;;;;;;;;;13.00;99.90;;;;;;5021734;28;20402;-69
2022/09/23 02:31:53;;;;;;;;;;;13.10;99.90;;;;;;5021178;28;20376;-69
2022/09/23 02:34:35;;;;;;;;;;;13.10;99.90;;;;;;5019498;28;19917;-69
2022/09/23 02:37:01;;;;;;;;;;;13.10;99.90;;;;;;5019792;28;19917;-69
2022/09/23 02:39:30;;;;;;;;;;;13.20;99.90;;;;;;5022382;28;19916;-69
2022/09/23 02:41:59;;;;;;;;;;;13.20;99.90;;;;;;5013800;28;20522;-67
2022/09/23 02:44:24;;;;;;;;;;;13.30;99.90;;;;;;5020332;28;19973;-69
2022/09/23 02:46:52;;;;;;;;;;;13.20;99.90;;;;;;5021407;28;20031;-69
2022/09/23 02:49:22;;;;;;;;;;;13.20;99.90;;;;;;5022225;28;19969;-69
2022/09/23 02:51:48;;;;;;;;;;;13.20;99.90;;;;;;5022002;28;19917;-69
2022/09/23 02:54:16;;;;;;;;;;;13.10;99.90;;;;;;5021131;28;19991;-69
2022/09/23 02:56:42;;;;;;;;;;;13.10;99.90;;;;;;5003654;28;19917;-69
2022/09/23 02:59:08;;;;;;;;;;;13.10;99.90;;;;;;5021538;28;19924;-69
2022/09/23 03:01:44;;;;;;;;;;;13.10;99.90;;;;;;5019183;28;19967;-69
2022/09/23 03:04:09;;;;;;;;;;;13.00;99.90;;;;;;5041791;28;20091;-70
2022/09/23 03:06:53;;;;;;;;;;;13.10;99.90;;;;;;5041223;28;20348;-70
2022/09/23 03:09:23;;;;;;;;;;;13.00;99.90;;;;;;5040458;28;20454;-70
2022/09/23 03:11:52;;;;;;;;;;;13.00;99.90;;;;;;5041673;28;19979;-69
2022/09/23 03:14:20;;;;;;;;;;;13.00;99.90;;;;;;5041309;28;19921;-69
2022/09/23 03:16:49;;;;;;;;;;;13.00;99.90;;;;;;5040907;28;19983;-70
2022/09/23 03:19:32;;;;;;;;;;;13.00;99.90;;;;;;5039579;28;19975;-70
2022/09/23 03:22:05;;;;;;;;;;;13.00;99.90;;;;;;5042076;28;20043;-70
2022/09/23 03:24:33;;;;;;;;;;;13.00;99.90;;;;;;5040131;28;19999;-69
2022/09/23 03:27:04;;;;;;;;;;;12.90;99.90;;;;;;5040180;28;20357;-69
2022/09/23 03:29:31;;;;;;;;;;;12.90;99.90;;;;;;5041872;28;19913;-69
2022/09/23 03:31:57;;;;;;;;;;;12.90;99.90;;;;;;5034174;28;19917;-69
2022/09/23 03:34:26;;;;;;;;;;;12.90;99.90;;;;;;5031766;28;19921;-69
2022/09/23 03:37:06;;;;;;;;;;;12.90;99.90;;;;;;5027250;28;19916;-70
2022/09/23 03:39:35;;;;;;;;;;;13.00;99.90;;;;;;5041095;28;19916;-69
2022/09/23 03:42:04;;;;;;;;;;;13.00;99.90;;;;;;5040486;28;19916;-69
2022/09/23 03:44:36;;;;;;;;;;;13.00;99.90;;;;;;5032902;28;19924;-69
2022/09/23 03:47:02;;;;;;;;;;;13.00;99.90;;;;;;5022512;28;20297;-69
2022/09/23 03:49:31;;;;;;;;;;;13.00;99.90;;;;;;5039804;28;19928;-70
2022/09/23 03:51:58;;;;;;;;;;;13.00;99.90;;;;;;5038038;28;20383;-69
2022/09/23 03:54:24;;;;;;;;;;;13.00;99.90;;;;;;5040692;28;19917;-69
2022/09/23 03:56:49;;;;;;;;;;;13.00;99.90;;;;;;5038971;28;19924;-70
2022/09/23 03:59:15;;;;;;;;;;;13.00;99.90;;;;;;5041333;28;20391;-69
2022/09/23 04:01:41;;;;;;;;;;;13.00;99.90;;;;;;5038565;28;19917;-69
2022/09/23 04:04:07;;;;;;;;;;;13.00;99.90;;;;;;5021594;28;19975;-70
2022/09/23 04:06:33;;;;;;;;;;;13.00;99.90;;;;;;5039182;28;19932;-70
2022/09/23 04:09:00;;;;;;;;;;;13.00;99.90;;;;;;5041503;28;19917;-69
2022/09/23 04:11:26;;;;;;;;;;;13.00;99.90;;;;;;5039909;28;19923;-69
2022/09/23 04:13:51;;;;;;;;;;;13.00;99.90;;;;;;5040589;28;19917;-69
2022/09/23 04:16:17;;;;;;;;;;;13.00;99.90;;;;;;5042240;28;19912;-69
2022/09/23 04:18:43;;;;;;;;;;;13.00;99.90;;;;;;5042125;28;19917;-70
2022/09/23 04:21:08;;;;;;;;;;;13.00;99.90;;;;;;5044416;28;19927;-69
2022/09/23 04:23:34;;;;;;;;;;;13.00;99.90;;;;;;5049990;28;19947;-69
2022/09/23 04:25:59;;;;;;;;;;;12.90;99.90;;;;;;5043090;28;19924;-69
2022/09/23 04:28:25;;;;;;;;;;;12.90;99.90;;;;;;5045589;28;19916;-69
2022/09/23 04:30:50;;;;;;;;;;;12.90;99.90;;;;;;5043057;28;20288;-69
2022/09/23 04:33:16;;;;;;;;;;;12.80;99.90;;;;;;5037542;28;19952;-69
2022/09/23 04:35:44;;;;;;;;;;;12.90;99.90;;;;;;5043945;28;20023;-69
2022/09/23 04:38:11;;;;;;;;;;;12.90;99.90;;;;;;5043794;28;20282;-69
2022/09/23 04:40:37;;;;;;;;;;;12.80;99.90;;;;;;5042968;28;19943;-69
2022/09/23 04:43:02;;;;;;;;;;;12.70;99.90;;;;;;5043991;28;20361;-70
2022/09/23 04:45:29;;;;;;;;;;;12.70;99.90;;;;;;5043424;28;19920;-69
2022/09/23 04:47:57;;;;;;;;;;;12.70;99.90;;;;;;5044145;28;19923;-69
2022/09/23 04:50:25;;;;;;;;;;;12.70;99.90;;;;;;5044429;28;20031;-69
2022/09/23 04:52:51;;;;;;;;;;;12.70;99.90;;;;;;5041294;28;20376;-69
2022/09/23 04:55:17;;;;;;;;;;;12.60;99.90;;;;;;5050623;28;19917;-69
2022/09/23 04:57:43;;;;;;;;;;;12.70;99.90;;;;;;5043610;28;19920;-69
2022/09/23 05:00:11;;;;;;;;;;;12.60;99.90;;;;;;5044591;28;20345;-69
2022/09/23 05:02:43;;;;;;;;;;;12.60;99.90;;;;;;5040193;28;20486;-70
2022/09/23 05:05:08;;;;;;;;;;;12.60;99.90;;;;;;5024045;28;19929;-69
2022/09/23 05:07:34;;;;;;;;;;;12.70;99.90;;;;;;5024372;28;19921;-69
2022/09/23 05:10:00;;;;;;;;;;;12.70;99.90;;;;;;5023145;28;20240;-69
2022/09/23 05:12:25;;;;;;;;;;;12.60;99.90;;;;;;5020727;28;19921;-69
2022/09/23 05:14:51;;;;;;;;;;;12.60;99.90;;;;;;5017917;28;20427;-69
2022/09/23 05:17:16;;;;;;;;;;;12.60;99.90;;;;;;5023614;28;19940;-70
2022/09/23 05:19:42;;;;;;;;;;;12.60;99.90;;;;;;5021863;28;19992;-69
2022/09/23 05:22:07;;;;;;;;;;;12.60;99.90;;;;;;5022207;28;20446;-70
2022/09/23 05:24:33;;;;;;;;;;;12.60;99.90;;;;;;5020754;28;19924;-69
2022/09/23 05:26:59;;;;;;;;;;;12.60;99.90;;;;;;5023044;28;20042;-69
2022/09/23 05:29:25;;;;;;;;;;;12.60;99.90;;;;;;5005394;28;19928;-69
2022/09/23 05:31:50;;;;;;;;;;;12.60;99.90;;;;;;5022458;28;19917;-70
2022/09/23 05:34:17;;;;;;;;;;;12.80;99.90;;;;;;5021840;28;20364;-69
2022/09/23 05:36:43;;;;;;;;;;;12.80;99.90;;;;;;5021635;28;19918;-69
2022/09/23 05:39:08;;;;;;;;;;;12.80;99.90;;;;;;5023341;28;19920;-70
2022/09/23 05:41:34;;;;;;;;;;;13.00;99.90;;;;;;5023387;28;19972;-70
2022/09/23 05:43:59;;;;;;;;;;;13.00;99.90;;;;;;5019944;28;19917;-70
2022/09/23 05:46:26;;;;;;;;;;;13.10;99.90;;;;;;5020223;28;19983;-70
2022/09/23 05:48:53;;;;;;;;;;;13.10;99.90;;;;;;5018192;28;19921;-70
2022/09/23 05:51:20;;;;;;;;;;;13.20;99.90;;;;;;5022305;28;19917;-69
2022/09/23 05:53:46;;;;;;;;;;;13.20;99.90;;;;;;5019869;28;19928;-69
2022/09/23 05:56:16;;;;;;;;;;;13.20;99.90;;;;;;5023222;28;19960;-70
2022/09/23 05:58:42;;;;;;;;;;;13.20;99.90;;;;;;5012923;28;19933;-70
2022/09/23 06:01:08;;;;;;;;;;;13.20;99.90;;;;;;5019152;28;20336;-70
2022/09/23 06:03:34;;;;;;;;;;;13.20;99.90;;;;;;5025975;28;19931;-70
2022/09/23 06:05:59;;;;;;;;;;;13.20;99.90;;;;;;5039538;28;20173;-68
2022/09/23 06:08:25;;;;;;;;;;;13.30;99.90;;;;;;5038850;28;19928;-68
2022/09/23 06:10:50;;;;;;;;;;;13.30;99.90;;;;;;5039805;28;19924;-68
2022/09/23 06:13:16;;;;;;;;;;;13.30;99.90;;;;;;5023787;28;20376;-68
2022/09/23 06:15:44;;;;;;;;;;;13.40;99.90;;;;;;5042864;28;20550;-69
2022/09/23 06:18:11;;;;;;;;;;;13.40;99.90;;;;;;5040521;28;19942;-68
2022/09/23 06:20:36;;;;;;;;;;;13.40;99.90;;;;;;5040311;28;19927;-68
2022/09/23 06:23:06;;;;;;;;;;;13.50;99.90;;;;;;5038583;28;19917;-68
2022/09/23 06:25:32;;;;;;;;;;;13.50;99.90;;;;;;5040814;28;20529;-68
2022/09/23 06:27:58;;;;;;;;;;;13.50;99.90;;;;;;5040787;28;19991;-67
2022/09/23 06:30:25;;;;;;;;;;;13.50;99.90;;;;;;5039676;28;20007;-67
2022/09/23 06:32:54;;;;;;;;;;;13.60;99.90;;;;;;5019178;28;19916;-68
2022/09/23 06:35:22;;;;;;;;;;;13.60;99.90;;;;;;5039844;28;19917;-67
2022/09/23 06:37:48;;;;;;;;;;;13.60;99.90;;;;;;5041276;28;19988;-68
2022/09/23 06:40:13;;;;;;;;;;;13.60;99.90;;;;;;5033826;28;20427;-68
2022/09/23 06:42:40;;;;;;;;;;;13.70;99.90;;;;;;5026361;28;19960;-67
2022/09/23 06:45:06;;;;;;;;;;;13.70;99.90;;;;;;5026089;28;19921;-68
2022/09/23 06:47:31;;;;;;;;;;;13.80;99.90;;;;;;5029807;28;19920;-68
2022/09/23 06:49:57;;;;;;;;;;;13.80;99.90;;;;;;5026386;28;19931;-68
2022/09/23 06:52:22;;;;;;;;;;;13.90;99.90;;;;;;5031237;28;20148;-68
2022/09/23 06:54:47;;;;;;;;;;;14.00;99.90;;;;;;5036311;28;19979;-68
2022/09/23 06:57:13;;;;;;;;;;;14.00;99.90;;;;;;5037429;28;20000;-68
2022/09/23 06:59:39;;;;;;;;;;;14.10;99.90;;;;;;5032127;28;21019;-68
2022/09/23 07:02:05;;;;;;;;;;;14.20;99.90;;;;;;5030677;28;20295;-68
2022/09/23 07:04:30;;;;;;;;;;;14.20;99.90;;;;;;5036249;28;20394;-69
2022/09/23 07:06:56;;;;;;;;;;;14.10;99.90;;;;;;5034993;28;19925;-68
2022/09/23 07:09:21;;;;;;;;;;;14.10;99.90;;;;;;5014884;28;19968;-68
2022/09/23 07:11:47;;;;;;;;;;;14.10;99.90;;;;;;5047542;28;19955;-69
2022/09/23 07:14:13;;;;;;;;;;;14.20;99.90;;;;;;5034914;28;20008;-69
2022/09/23 07:16:38;;;;;;;;;;;14.20;99.90;;;;;;5037256;28;19986;-69
2022/09/23 07:19:04;;;;;;;;;;;14.20;99.90;;;;;;5038761;28;19920;-69
2022/09/23 07:21:30;;;;;;;;;;;14.30;99.90;;;;;;5040280;28;19923;-68
2022/09/23 07:23:56;;;;;;;;;;;14.30;99.90;;;;;;5037017;28;19924;-69
2022/09/23 07:26:23;;;;;;;;;;;14.30;99.90;;;;;;5048373;28;20304;-69
2022/09/23 07:28:55;;;;;;;;;;;14.30;99.90;;;;;;5036130;28;20019;-70
2022/09/23 07:31:21;;;;;;;;;;;14.30;99.90;;;;;;5031396;28;19917;-68
2022/09/23 07:33:47;;;;;;;;;;;14.30;99.90;;;;;;5033056;28;20900;-68
2022/09/23 07:36:15;;;;;;;;;;;14.30;99.90;;;;;;5039159;28;20442;-68
2022/09/23 07:38:41;;;;;;;;;;;14.30;99.90;;;;;;5014782;28;20762;-69
2022/09/23 07:41:07;;;;;;;;;;;14.40;99.90;;;;;;5027381;28;19927;-69
2022/09/23 07:43:33;;;;;;;;;;;14.50;99.90;;;;;;5028132;28;20046;-69
2022/09/23 07:46:01;;;;;;;;;;;14.50;99.90;;;;;;5031607;28;20548;-69
2022/09/23 07:48:26;;;;;;;;;;;14.60;99.90;;;;;;5025475;28;20035;-68
2022/09/23 07:50:52;;;;;;;;;;;14.60;99.90;;;;;;5028460;28;20027;-70
2022/09/23 07:53:17;;;;;;;;;;;14.60;99.90;;;;;;5031724;28;19917;-69
2022/09/23 07:55:49;;;;;;;;;;;14.70;99.90;;;;;;5026285;28;19917;-69
2022/09/23 07:58:15;;;;;;;;;;;14.70;99.90;;;;;;5030029;28;19963;-70
2022/09/23 08:00:41;;;;;;;;;;;14.70;99.90;;;;;;5029953;28;20012;-70
2022/09/23 08:03:06;;;;;;;;;;;14.60;99.90;;;;;;5028942;28;20210;-69
2022/09/23 08:05:31;;;;;;;;;;;14.60;99.90;;;;;;5029494;28;20005;-70
2022/09/23 08:07:57;;;;;;;;;;;14.60;99.90;;;;;;5027850;28;19939;-70
2022/09/23 08:10:22;;;;;;;;;;;14.60;99.90;;;;;;5033752;28;20009;-70
2022/09/23 08:12:48;;;;;;;;;;;14.60;99.90;;;;;;5036266;28;19917;-70
2022/09/23 08:15:15;;;;;;;;;;;14.70;99.90;;;;;;5028982;28;20368;-70
2022/09/23 08:17:40;;;;;;;;;;;14.70;99.90;;;;;;5019244;28;19928;-70
2022/09/23 08:20:06;;;;;;;;;;;14.70;99.90;;;;;;5037224;28;19928;-70
2022/09/23 08:22:31;;;;;;;;;;;14.70;99.90;;;;;;5038604;28;19916;-69
2022/09/23 08:24:57;;;;;;;;;;;14.70;99.90;;;;;;5040100;28;19915;-70
2022/09/23 08:27:22;;;;;;;;;;;14.70;99.90;;;;;;5022342;28;20440;-69
2022/09/23 08:29:48;;;;;;;;;;;14.70;99.90;;;;;;5035276;28;19920;-70
2022/09/23 08:32:13;;;;;;;;;;;14.70;99.90;;;;;;5036758;28;19925;-70
2022/09/23 08:34:39;;;;;;;;;;;14.80;99.90;;;;;;5040578;28;19916;-70
2022/09/23 08:37:08;;;;;;;;;;;14.90;99.90;;;;;;5038688;28;19916;-70
2022/09/23 08:39:33;;;;;;;;;;;14.90;99.90;;;;;;5035528;28;19948;-70
2022/09/23 08:41:59;;;;;;;;;;;15.00;99.90;;;;;;5040363;28;20416;-68
2022/09/23 08:44:30;;;;;;;;;;;15.10;99.90;;;;;;5038713;28;20331;-68
2022/09/23 08:46:59;;;;;;;;;;;15.20;99.90;;;;;;4680438;28;9999820;-68
2022/09/23 08:49:32;;;;;;;;;;;15.30;99.90;;;;;;5037422;28;19921;-68
2022/09/23 08:51:59;;;;;;;;;;;15.40;99.90;;;;;;5037626;28;20542;-68
2022/09/23 08:54:27;;;;;;;;;;;15.50;99.90;;;;;;5033566;28;20003;-68
2022/09/23 08:56:56;;;;;;;;;;;15.50;99.90;;;;;;5031840;28;19963;-68
2022/09/23 08:59:28;;;;;;;;;;;15.60;99.90;;;;;;5032323;28;20251;-68
2022/09/23 09:02:13;;;;;;;;;;;15.60;99.90;;;;;;5038211;28;20428;-69
2022/09/23 09:04:41;;;;;;;;;;;15.60;99.90;;;;;;5034081;28;20307;-67
2022/09/23 09:07:07;;;;;;;;;;;15.60;99.90;;;;;;5031266;28;20257;-68
2022/09/23 09:09:36;;;;;;;;;;;15.60;99.90;;;;;;5055059;28;19951;-68
2022/09/23 09:12:05;;;;;;;;;;;15.60;99.90;;;;;;5040741;28;19920;-68
2022/09/23 09:14:35;;;;;;;;;;;15.70;99.90;;;;;;5028394;28;19970;-68
2022/09/23 09:17:03;;;;;;;;;;;15.70;99.90;;;;;;5028226;28;20446;-68
2022/09/23 09:19:31;;;;;;;;;;;15.70;99.90;;;;;;5041146;28;20344;-68
2022/09/23 09:21:56;;;;;;;;;;;15.70;99.90;;;;;;5041188;28;19913;-68
2022/09/23 09:24:28;;;;;;;;;;;15.80;99.90;;;;;;5042136;28;19932;-67
2022/09/23 09:26:54;;;;;;;;;;;15.70;99.90;;;;;;5041824;28;20152;-68
2022/09/23 09:29:24;;;;;;;;;;;15.70;99.90;;;;;;5042016;28;20027;-68
2022/09/23 09:31:50;;;;;;;;;;;15.70;99.90;;;;;;5041517;28;19917;-68
2022/09/23 09:34:21;;;;;;;;;;;15.60;99.90;;;;;;5042641;28;19920;-68
2022/09/23 09:36:47;;;;;;;;;;;15.60;99.90;;;;;;5043141;28;19916;-68
2022/09/23 09:39:13;;;;;;;;;;;15.70;99.90;;;;;;5043065;28;19936;-68
2022/09/23 09:41:46;;;;;;;;;;;15.80;99.90;;;;;;5043664;28;19924;-68
2022/09/23 09:44:21;;;;;;;;;;;15.90;99.90;;;;;;5037842;28;19921;-68
2022/09/23 09:46:50;;;;;;;;;;;16.00;99.90;;;;;;5040514;28;19929;-68
2022/09/23 09:49:15;;;;;;;;;;;16.10;99.90;;;;;;5035040;28;19985;-68
2022/09/23 09:51:41;;;;;;;;;;;16.30;99.90;;;;;;5026354;28;19919;-68
2022/09/23 09:54:36;;;;;;;;;;;16.50;99.90;;;;;;5048601;28;19938;-68
2022/09/23 09:57:09;;;;;;;;;;;16.60;99.90;;;;;;5015497;28;19952;-68
2022/09/23 09:59:34;;;;;;;;;;;16.70;99.90;;;;;;5034316;28;19924;-68
2022/09/23 10:02:12;;;;;;;;;;;16.80;99.90;;;;;;5041225;28;20264;-68
2022/09/23 10:04:38;;;;;;;;;;;16.90;99.90;;;;;;5042464;28;20094;-70
2022/09/23 10:07:06;;;;;;;;;;;16.90;99.90;;;;;;5036224;28;19925;-68
2022/09/23 10:09:33;;;;;;;;;;;16.90;99.90;;;;;;5043699;28;19917;-70
2022/09/23 10:12:09;;;;;;;;;;;17.00;99.90;;;;;;5039701;28;19917;-70
2022/09/23 10:14:35;;;;;;;;;;;16.90;99.90;;;;;;5036443;28;19931;-68
2022/09/23 10:17:04;;;;;;;;;;;16.90;99.90;;;;;;5033503;28;19916;-68
2022/09/23 10:19:30;;;;;;;;;;;17.00;99.90;;;;;;5036893;28;19917;-68
2022/09/23 10:21:58;;;;;;;;;;;17.10;99.90;;;;;;5039722;28;20589;-68
2022/09/23 10:24:28;;;;;;;;;;;17.10;99.90;;;;;;5039835;28;19924;-69
2022/09/23 10:26:56;;;;;;;;;;;17.20;99.90;;;;;;5033070;28;19932;-68
2022/09/23 10:29:23;;;;;;;;;;;17.30;99.90;;;;;;5035836;28;19925;-68
2022/09/23 10:31:52;;;;;;;;;;;17.30;99.90;;;;;;5043866;28;19916;-68
2022/09/23 10:34:22;;;;;;;;;;;17.40;99.90;;;;;;5040388;28;19923;-70
2022/09/23 10:36:53;;;;;;;;;;;17.60;99.90;;;;;;5036260;28;20003;-68
2022/09/23 10:48:02;;;;;;;;;;;17.90;99.90;;;;;;5039375;28;20032;-69
2022/09/23 10:50:37;;;;;;;;;;;18.10;99.90;;;;;;5036008;28;19971;-69
2022/09/23 10:53:02;;;;;;;;;;;18.40;99.90;;;;;;5023343;28;19993;-69
2022/09/23 10:55:28;;;;;;;;;;;18.40;99.90;;;;;;4691607;28;10000139;-69
2022/09/23 10:58:03;;;;;;;;;;;18.70;99.90;;;;;;5043090;28;20405;-69
2022/09/23 11:00:28;;;;;;;;;;;18.80;99.90;;;;;;5039123;28;19943;-69
2022/09/23 11:03:08;;;;;;;;;;;18.80;99.90;;;;;;5041175;28;20387;-69
2022/09/23 11:05:36;;;;;;;;;;;18.70;99.90;;;;;;5039110;28;20103;-69
2022/09/23 11:08:21;;;;;;;;;;;18.70;99.90;;;;;;5034507;28;19960;-69
2022/09/23 11:10:56;;;;;;;;;;;18.60;99.90;;;;;;5032413;28;19916;-69
2022/09/23 11:13:40;;;;;;;;;;;18.40;99.90;;;;;;5032369;28;19917;-69
2022/09/23 11:16:24;;;;;;;;;;;18.30;99.90;;;;;;5037148;28;19917;-69
2022/09/23 11:18:49;;;;;;;;;;;18.30;99.90;;;;;;5035269;28;20077;-69
2022/09/23 11:21:36;;;;;;;;;;;18.10;99.90;;;;;;5037586;28;20011;-69
2022/09/23 11:24:22;;;;;;;;;;;18.00;99.90;;;;;;5038149;28;20300;-69
2022/09/23 11:26:52;;;;;;;;;;;17.90;99.90;;;;;;5031386;28;20410;-69
2022/09/23 11:29:17;;;;;;;;;;;17.70;99.90;;;;;;5020058;28;19982;-69
2022/09/23 11:32:01;;;;;;;;;;;17.60;99.90;;;;;;5037119;28;19921;-69
2022/09/23 11:34:26;;;;;;;;;;;17.70;99.90;;;;;;5019466;28;19916;-69
2022/09/23 11:36:56;;;;;;;;;;;17.90;99.90;;;;;;5040214;28;19917;-69
2022/09/23 11:39:29;;;;;;;;;;;18.10;99.90;;;;;;5039377;28;19913;-69
2022/09/23 11:41:58;;;;;;;;;;;18.20;99.90;;;;;;5040349;28;20019;-69
2022/09/23 11:44:37;;;;;;;;;;;18.20;99.90;;;;;;5040568;28;19913;-69
2022/09/23 11:47:19;;;;;;;;;;;18.30;99.90;;;;;;5039929;28;20015;-69
2022/09/23 11:49:58;;;;;;;;;;;18.20;99.90;;;;;;5040898;28;19913;-69
2022/09/23 11:52:28;;;;;;;;;;;18.10;99.90;;;;;;5038177;28;19916;-69
2022/09/23 11:55:12;;;;;;;;;;;18.10;99.90;;;;;;5036833;28;20352;-69
2022/09/23 11:57:41;;;;;;;;;;;18.10;99.90;;;;;;5030810;28;19952;-69
2022/09/23 12:00:14;;;;;;;;;;;18.00;99.90;;;;;;5023801;28;19916;-69
2022/09/23 12:02:47;;;;;;;;;;;17.90;99.90;;;;;;5023209;28;20324;-68
2022/09/23 12:05:22;;;;;;;;;;;17.80;99.90;;;;;;5024857;28;20051;-69
2022/09/23 12:07:52;;;;;;;;;;;17.70;99.90;;;;;;5030210;28;20273;-69
2022/09/23 12:10:19;;;;;;;;;;;17.60;99.90;;;;;;5037550;28;20348;-69
2022/09/23 12:12:57;;;;;;;;;;;17.60;99.90;;;;;;5037614;28;19921;-69
2022/09/23 12:15:38;;;;;;;;;;;17.60;99.90;;;;;;5032754;28;19917;-69
2022/09/23 12:18:22;;;;;;;;;;;17.60;99.90;;;;;;5031642;28;20375;-69
2022/09/23 12:20:54;;;;;;;;;;;17.90;99.90;;;;;;5027564;28;19917;-69
2022/09/23 12:23:26;;;;;;;;;;;18.00;99.90;;;;;;5025584;28;19917;-70
2022/09/23 12:25:55;;;;;;;;;;;18.10;99.90;;;;;;5024091;28;21081;-69
2022/09/23 12:28:28;;;;;;;;;;;18.00;99.90;;;;;;5022191;28;19963;-69
2022/09/23 12:30:56;;;;;;;;;;;17.90;99.90;;;;;;5024450;28;20233;-68
2022/09/23 12:33:26;;;;;;;;;;;17.50;99.90;;;;;;5037269;28;20011;-68
2022/09/23 12:35:53;;;;;;;;;;;17.50;99.90;;;;;;5036702;28;19916;-68
2022/09/23 12:38:24;;;;;;;;;;;17.30;99.90;;;;;;5023808;28;19952;-68
2022/09/23 12:40:51;;;;;;;;;;;17.20;99.90;;;;;;5028841;28;20463;-69
2022/09/23 12:43:28;;;;;;;;;;;17.20;99.90;;;;;;5038239;28;19916;-68
2022/09/23 12:45:54;;;;;;;;;;;17.20;99.90;;;;;;5039648;28;19924;-68
2022/09/23 12:48:41;;;;;;;;;;;17.30;99.90;;;;;;5040985;28;20368;-68
2022/09/23 12:51:17;;;;;;;;;;;17.40;99.90;;;;;;5031703;28;19913;-68
2022/09/23 12:53:54;;;;;;;;;;;17.40;99.90;;;;;;5039059;28;19917;-69
2022/09/23 12:56:25;;;;;;;;;;;17.50;99.90;;;;;;5038632;28;19923;-68
2022/09/23 12:59:20;;;;;;;;;;;17.70;99.90;;;;;;5040513;28;20512;-68
2022/09/23 13:01:46;;;;;;;;;;;17.90;99.90;;;;;;5019624;28;19924;-68
2022/09/23 13:07:16;;;;;;;;;;;18.10;99.90;;;;;;5037778;28;19975;-68
2022/09/23 13:09:44;;;;;;;;;;;18.00;99.90;;;;;;5039201;28;20078;-68
2022/09/23 13:12:16;;;;;;;;;;;18.10;99.90;;;;;;5031742;28;20427;-67
2022/09/23 13:14:44;;;;;;;;;;;18.20;99.90;;;;;;5033108;28;19939;-67
2022/09/23 13:17:22;;;;;;;;;;;18.30;99.90;;;;;;5038236;28;20756;-67
2022/09/23 13:19:56;;;;;;;;;;;18.40;99.90;;;;;;5039256;28;20012;-67
2022/09/23 13:22:40;;;;;;;;;;;18.50;99.90;;;;;;5023667;28;19969;-67
2022/09/23 13:25:14;;;;;;;;;;;18.60;99.90;;;;;;5035673;28;19917;-67
2022/09/23 13:27:41;;;;;;;;;;;18.70;99.90;;;;;;5040288;28;19953;-67
2022/09/23 13:30:13;;;;;;;;;;;18.80;99.90;;;;;;5039649;28;19923;-68
2022/09/23 13:32:43;;;;;;;;;;;18.70;99.90;;;;;;5040013;28;20457;-67
2022/09/23 13:35:11;;;;;;;;;;;18.60;99.90;;;;;;5038463;28;20031;-67
2022/09/23 13:37:41;;;;;;;;;;;18.70;99.90;;;;;;5036679;28;19924;-67
2022/09/23 13:40:09;;;;;;;;;;;18.90;99.90;;;;;;5040472;28;19912;-67
2022/09/23 13:42:36;;;;;;;;;;;19.10;99.90;;;;;;5030759;28;19967;-67
2022/09/23 13:45:02;;;;;;;;;;;19.00;99.90;;;;;;5028692;28;19930;-67
2022/09/23 13:47:29;;;;;;;;;;;19.10;99.90;;;;;;5021772;28;19925;-68
2022/09/23 13:49:54;;;;;;;;;;;19.30;99.90;;;;;;5034052;28;20523;-68
2022/09/23 13:52:25;;;;;;;;;;;19.20;99.90;;;;;;5038164;28;19908;-68
2022/09/23 13:54:50;;;;;;;;;;;19.20;99.90;;;;;;5036112;28;20043;-67
2022/09/23 13:57:30;;;;;;;;;;;19.10;99.90;;;;;;5038644;28;20011;-67
2022/09/23 14:00:00;;;;;;;;;;;18.90;99.90;;;;;;5038474;28;19943;-67
2022/09/23 14:02:27;;;;;;;;;;;18.80;99.90;;;;;;5032635;28;19917;-67
2022/09/23 14:04:57;;;;;;;;;;;18.60;99.90;;;;;;5029936;28;20015;-67
2022/09/23 14:07:23;;;;;;;;;;;18.30;99.90;;;;;;5008092;28;19940;-68
2022/09/23 14:09:49;;;;;;;;;;;17.90;99.90;;;;;;5012205;28;20589;-67
2022/09/23 14:12:20;;;;;;;;;;;17.50;99.90;;;;;;5007002;28;19921;-68
2022/09/23 14:14:48;;;;;;;;;;;17.20;99.90;;;;;;5007792;28;20295;-68
2022/09/23 14:17:15;;;;;;;;;;;17.10;99.90;;;;;;5023995;28;21431;-67
2022/09/23 14:19:41;;;;;;;;;;;16.90;99.90;;;;;;5035522;28;19924;-67
2022/09/23 14:22:22;;;;;;;;;;;16.80;99.90;;;;;;5037912;28;19917;-67
2022/09/23 14:24:48;;;;;;;;;;;16.70;99.90;;;;;;5039438;28;19923;-67
2022/09/23 14:27:17;;;;;;;;;;;16.60;99.90;;;;;;5041476;28;20310;-67
2022/09/23 14:29:43;;;;;;;;;;;16.70;99.90;;;;;;5018137;28;19917;-68
2022/09/23 14:32:15;;;;;;;;;;;16.60;99.90;;;;;;5054767;28;19956;-67
2022/09/23 14:34:43;;;;;;;;;;;16.50;99.90;;;;;;5039675;28;19975;-68
2022/09/23 14:40:19;;;;;;;;;;;16.50;99.90;;;;;;5039539;28;19927;-67
2022/09/23 14:42:50;;;;;;;;;;;16.40;99.90;;;;;;5040364;28;19917;-67